Nearby METAR Reports

 

EBAW - Antwerpen, Belgium
Distance from station: NW 22km
Updated: 2018-08-16 02:20
Partly cloudy
Partly cloudy
 Wind from SSW
Wind: SSW 9 km/h
Temperature: 17°C
Dew Point: 14°C
Humidity: 83%
Barometer: 1018 hPa
Clouds: Partly cloudy
Visibility: 10 km
Cloud details: Partly cloudy 1006 m
2018/08/16 00:20 EBAW 160020Z AUTO 20005KT 9999 // SCT033/// 17/14 Q1018
EBBR - Brussel, Belgium
Distance from station: SW 24km
Updated: 2018-08-16 02:20
Mostly cloudy
Mostly cloudy
 Wind from SSW
Wind: SSW 7 km/h
Temperature: 16°C
Dew Point: 14°C
Humidity: 88%
Barometer: 1018 hPa
Clouds: Mostly cloudy
Visibility: 10 km
Cloud details: Mostly cloudy 884 m
2018/08/16 00:20 EBBR 160020Z 21004KT 9999 BKN029 16/14 Q1018 NOSIG
 
EBDT - Schaffen, Belgium
Distance from station: ESE 26km
Updated: 2018-08-16 02:25
Clear
Clear
 Wind from SSW
Wind: SSW 6 km/h
Temperature: 16°C
Dew Point: 13°C
Humidity: 83%
Barometer: 1018 hPa
Clouds: Clear
Visibility: 10 km
2018/08/16 00:25 EBDT 160025Z AUTO 21003KT 9999 NCD 16/13 Q1018 BLU
EBBE - Beauvechain, Belgium
Distance from station: S 36km
Updated: 2018-08-16 02:25
Clear
Clear
 Wind from SSW
Wind: SSW 9 km/h
Temperature: 15°C
Dew Point: 12°C
Humidity: 82%
Barometer: 1019 hPa
Clouds: Clear
Visibility: 10 km
2018/08/16 00:25 EBBE 160025Z AUTO 20005KT 9999 NCD 15/12 Q1019 BLU
 
EHWO - Woensdrecht Rnla, Netherlands
Distance from station: NNW 50km
Updated: 2018-08-16 02:25
Clear
Clear
 Wind from SW
Wind: SW 11 km/h
Temperature: 17°C
Dew Point: 14°C
Humidity: 83%
Barometer: 1017 hPa
Clouds: Clear
Visibility: 10 km
2018/08/16 00:25 EHWO 160025Z AUTO 22006KT 190V250 9999 NCD 17/14 Q1017 BLU
EBBL - Kleine-Brogel, Belgium
Distance from station: ENE 54km
Updated: 2018-08-16 02:25
Clear
Clear
 Wind from varies
Wind: varies 4 km/h
Temperature: 15°C
Dew Point: 14°C
Humidity: 94%
Barometer: 1018 hPa
Clouds: Clear
Visibility: 10 km
2018/08/16 00:25 EBBL 160025Z AUTO VRB02KT 9999 NCD 15/14 Q1018 BLU
 
EHGR - Gilze-Rijen Rnla, Netherlands
Distance from station: NNE 57km
Updated: 2018-08-16 02:25
Few Clouds
Few Clouds
 Wind from SSW
Wind: SSW 11 km/h
Temperature: 16°C
Dew Point: 14°C
Humidity: 88%
Barometer: 1017 hPa
Clouds: Few Clouds
Visibility: 10 km
Cloud details: Few Clouds 975 m
2018/08/16 00:25 EHGR 160025Z AUTO 20006KT 170V250 9999 FEW032 16/14 Q1017 BLU
EHEH - Eindhoven Rnlafb, Netherlands
Distance from station: NE 63km
Updated: 2018-08-16 02:25
Clear
Clear
 Wind from S
Wind: S 11 km/h
Temperature: 16°C
Dew Point: 14°C
Humidity: 88%
Barometer: 1018 hPa
Clouds: Clear
Visibility: 10 km
2018/08/16 00:25 EHEH 160025Z AUTO 17006KT 9999 NCD 16/14 Q1018 BLU
 
EBCI - Charleroi, Belgium
Distance from station: SSW 70km
Updated: 2018-08-16 02:20
Clear
Clear
 Wind from SSW
Wind: SSW 6 km/h
Temperature: 14°C
Dew Point: 13°C
Humidity: 94%
Barometer: 1019 hPa
Summary: Clear
Visibility: greater than 10 km
2018/08/16 00:20 EBCI 160020Z 21003KT CAVOK 14/13 Q1019 NOSIG
EBLG - Bierset, Belgium
Distance from station: SE 72km
Updated: 2018-08-16 02:20
Clear
Clear
 Wind from SSE
Wind: SSE 11 km/h
Temperature: 16°C
Dew Point: 14°C
Humidity: 88%
Barometer: 1019 hPa
Summary: Clear
Visibility: greater than 10 km
2018/08/16 00:20 EBLG 160020Z 16006KT CAVOK 16/14 Q1019 NOSIG